createdAt,value
2023-03-14T00:01:21.087Z,5.93
2023-03-14T00:02:55.092Z,2.43
2023-03-14T00:04:27.905Z,2.87
2023-03-14T00:06:03.957Z,2.57
2023-03-14T00:07:38.132Z,2.80
2023-03-14T00:09:10.819Z,3.67
2023-03-14T00:10:43.535Z,2.93
2023-03-14T00:12:15.359Z,3.40
2023-03-14T00:13:49.783Z,3.30
2023-03-14T00:15:22.575Z,4.83
2023-03-14T00:16:56.631Z,4.67
2023-03-14T00:18:29.317Z,4.10
2023-03-14T00:20:08.901Z,3.87
2023-03-14T00:21:41.672Z,4.13
2023-03-14T00:23:14.535Z,2.80
2023-03-14T00:24:47.262Z,7.33
2023-03-14T00:26:22.171Z,3.63
2023-03-14T00:27:53.968Z,5.67
2023-03-14T00:29:26.663Z,4.30
2023-03-14T00:30:59.546Z,4.27
2023-03-14T00:32:33.692Z,3.90
2023-03-14T00:34:05.450Z,4.83
2023-03-14T00:35:38.231Z,3.80
2023-03-14T00:37:10.940Z,5.00
2023-03-14T00:38:44.116Z,5.40
2023-03-14T00:40:17.167Z,2.33
2023-03-14T00:41:54.014Z,3.17
2023-03-14T00:43:26.772Z,2.90
2023-03-14T00:44:59.471Z,7.60
2023-03-14T00:46:32.236Z,4.70
2023-03-14T00:48:06.373Z,4.23
2023-03-14T00:49:39.079Z,5.10
2023-03-14T00:51:14.700Z,4.10
2023-03-14T00:52:49.674Z,3.80
2023-03-14T00:54:22.460Z,4.73
2023-03-14T00:55:55.174Z,4.63
2023-03-14T00:57:27.866Z,6.40
2023-03-14T00:59:00.544Z,5.40
2023-03-14T01:00:32.948Z,5.30
2023-03-14T01:02:05.677Z,3.53
2023-03-14T01:03:38.872Z,5.07
2023-03-14T01:05:12.129Z,6.57
2023-03-14T01:06:44.855Z,3.03
2023-03-14T01:08:17.818Z,7.20
2023-03-14T01:09:53.660Z,5.37
2023-03-14T01:11:28.768Z,5.03
2023-03-14T01:13:01.480Z,5.97
2023-03-14T01:14:33.231Z,6.15
2023-03-14T01:16:08.835Z,4.43
2023-03-14T01:17:40.640Z,2.73
2023-03-14T01:19:14.651Z,6.72
2023-03-14T01:20:47.358Z,5.23
2023-03-14T01:22:22.115Z,7.17
2023-03-14T01:23:56.540Z,3.60
2023-03-14T01:25:29.237Z,4.82
2023-03-14T01:27:01.927Z,3.33
2023-03-14T01:28:33.654Z,3.77
2023-03-14T01:30:08.866Z,5.77
2023-03-14T01:31:40.685Z,3.67
2023-03-14T01:33:14.209Z,4.10
2023-03-14T01:34:48.215Z,5.40
2023-03-14T01:36:21.230Z,5.18
2023-03-14T01:37:53.970Z,4.70
2023-03-14T01:39:26.820Z,5.17
2023-03-14T01:40:59.019Z,5.00
2023-03-14T01:42:31.726Z,4.57
2023-03-14T01:44:04.516Z,5.47
2023-03-14T01:46:10.078Z,5.07
2023-03-14T01:47:42.814Z,7.23
2023-03-14T01:49:22.611Z,5.03
2023-03-14T01:50:55.858Z,7.23
2023-03-14T01:52:34.496Z,6.60
2023-03-14T01:54:13.420Z,5.13
2023-03-14T01:55:46.171Z,5.13
2023-03-14T01:57:22.561Z,4.93
2023-03-14T01:58:55.329Z,7.73
2023-03-14T02:00:28.232Z,4.53
2023-03-14T02:02:02.124Z,4.03
2023-03-14T02:03:39.979Z,7.30
2023-03-14T02:05:13.987Z,6.00
2023-03-14T02:06:52.297Z,4.10
2023-03-14T02:08:26.161Z,4.40
2023-03-14T02:10:00.966Z,5.43
2023-03-14T02:11:33.515Z,5.73
2023-03-14T02:13:07.789Z,5.70
2023-03-14T02:14:41.657Z,4.60
2023-03-14T02:16:14.438Z,6.22
2023-03-14T02:17:48.088Z,3.80
2023-03-14T02:19:25.770Z,2.67
2023-03-14T02:21:07.542Z,4.43
2023-03-14T02:22:43.273Z,3.87
2023-03-14T02:24:21.442Z,3.90
2023-03-14T02:25:58.241Z,6.00
2023-03-14T02:27:32.024Z,5.65
2023-03-14T02:29:04.988Z,4.57
2023-03-14T02:30:38.121Z,4.13
2023-03-14T02:32:11.307Z,7.93
2023-03-14T02:33:44.121Z,3.78
2023-03-14T02:35:20.821Z,6.47
2023-03-14T02:36:54.335Z,3.90
2023-03-14T02:38:33.170Z,5.33
2023-03-14T02:40:07.629Z,6.13
2023-03-14T02:41:40.534Z,5.88
2023-03-14T02:43:14.685Z,5.90
2023-03-14T02:44:56.480Z,6.28
2023-03-14T02:46:29.462Z,3.77
2023-03-14T02:48:05.903Z,4.37
2023-03-14T02:49:38.600Z,5.65
2023-03-14T02:51:12.345Z,4.77
2023-03-14T02:52:44.113Z,6.13
2023-03-14T02:54:17.780Z,3.70
2023-03-14T02:55:51.040Z,4.47
2023-03-14T02:57:23.780Z,6.87
2023-03-14T02:58:58.634Z,5.53
2023-03-14T03:00:31.548Z,4.37
2023-03-14T03:02:04.240Z,2.93
2023-03-14T03:03:36.113Z,10.63
2023-03-14T03:05:09.442Z,6.13
2023-03-14T03:06:43.355Z,4.70
2023-03-14T03:08:16.077Z,4.53
2023-03-14T03:09:48.823Z,6.63
2023-03-14T03:11:21.753Z,7.37
2023-03-14T03:12:54.541Z,4.10
2023-03-14T03:14:28.635Z,5.50
2023-03-14T03:16:01.336Z,4.57
2023-03-14T03:17:34.009Z,4.38
2023-03-14T03:19:06.731Z,4.80
2023-03-14T03:20:39.826Z,4.50
2023-03-14T03:22:12.603Z,4.15
2023-03-14T03:23:45.299Z,3.50
2023-03-14T03:25:18.422Z,2.57
2023-03-14T03:26:51.121Z,2.97
2023-03-14T03:28:23.818Z,2.63
2023-03-14T03:29:57.873Z,6.03
2023-03-14T03:31:30.565Z,6.63
2023-03-14T03:33:03.240Z,3.37
2023-03-14T03:34:35.987Z,4.32
2023-03-14T03:36:10.200Z,6.27
2023-03-14T03:37:42.923Z,3.00
2023-03-14T03:39:15.610Z,5.87
2023-03-14T03:40:48.350Z,3.43
2023-03-14T03:42:20.177Z,3.07
2023-03-14T03:43:53.141Z,5.17
2023-03-14T03:45:27.223Z,4.53
2023-03-14T03:46:59.952Z,4.50
2023-03-14T03:48:32.673Z,3.97
2023-03-14T03:50:06.157Z,4.15
2023-03-14T03:51:38.849Z,5.13
2023-03-14T03:53:13.699Z,3.10
2023-03-14T03:54:46.521Z,4.63
2023-03-14T03:56:19.587Z,2.45
2023-03-14T03:57:51.647Z,3.53
2023-03-14T03:59:24.535Z,5.33
2023-03-14T04:00:57.595Z,3.37
2023-03-14T04:02:30.526Z,5.23
2023-03-14T04:04:03.536Z,4.73
2023-03-14T04:05:36.577Z,6.10
2023-03-14T04:07:08.397Z,5.13
2023-03-14T04:08:42.317Z,4.13
2023-03-14T04:10:15.036Z,4.17
2023-03-14T04:11:47.736Z,3.13
2023-03-14T04:13:20.435Z,3.50
2023-03-14T04:14:53.098Z,4.40
2023-03-14T04:16:27.907Z,3.70
2023-03-14T04:18:00.964Z,5.70
2023-03-14T04:19:33.645Z,2.87
2023-03-14T04:21:06.830Z,4.20
2023-03-14T04:22:39.592Z,3.87
2023-03-14T04:24:12.320Z,3.37
2023-03-14T04:25:45.012Z,4.37
2023-03-14T04:27:17.689Z,4.73
2023-03-14T04:28:50.427Z,3.63
2023-03-14T04:30:23.176Z,3.73
2023-03-14T04:31:57.166Z,4.03
2023-03-14T04:33:29.857Z,3.65
2023-03-14T04:35:02.560Z,3.45
2023-03-14T04:36:36.740Z,3.40
2023-03-14T04:38:10.605Z,3.88
2023-03-14T04:39:43.432Z,5.07
2023-03-14T04:41:16.167Z,4.00
2023-03-14T04:42:49.040Z,4.30
2023-03-14T04:44:21.826Z,5.80
2023-03-14T04:45:55.946Z,4.40
2023-03-14T04:47:30.189Z,5.70
2023-03-14T04:49:02.873Z,2.13
2023-03-14T04:50:35.538Z,2.28
2023-03-14T04:52:08.242Z,2.60
2023-03-14T04:53:41.081Z,2.97
2023-03-14T04:55:13.802Z,2.85
2023-03-14T04:56:46.485Z,2.17
2023-03-14T04:58:19.239Z,3.92
2023-03-14T04:59:51.944Z,1.87
2023-03-14T05:01:24.653Z,1.87
2023-03-14T05:02:58.797Z,2.58
2023-03-14T05:04:33.682Z,3.33
2023-03-14T05:06:07.063Z,4.85
2023-03-14T05:07:39.810Z,2.78
2023-03-14T05:09:12.516Z,4.80
2023-03-14T05:10:45.210Z,3.63
2023-03-14T05:12:17.958Z,7.40
2023-03-14T05:13:50.658Z,3.38
2023-03-14T05:15:23.433Z,2.10
2023-03-14T05:16:56.197Z,2.70
2023-03-14T05:18:30.191Z,4.45
2023-03-14T05:20:05.228Z,5.50
2023-03-14T05:21:37.937Z,4.20
2023-03-14T05:23:10.893Z,4.55
2023-03-14T05:24:43.621Z,3.40
2023-03-14T05:26:17.554Z,1.92
2023-03-14T05:27:49.296Z,2.47
2023-03-14T05:29:22.031Z,2.72
2023-03-14T05:30:54.746Z,4.00
2023-03-14T05:32:27.483Z,4.03
2023-03-14T05:34:01.509Z,5.30
2023-03-14T05:35:34.227Z,1.77
2023-03-14T05:37:06.016Z,4.00
2023-03-14T05:38:38.692Z,3.17
2023-03-14T05:40:11.635Z,4.57
2023-03-14T05:41:44.370Z,3.70
2023-03-14T05:43:17.266Z,1.95
2023-03-14T05:44:49.966Z,4.10
2023-03-14T05:46:22.710Z,1.70
2023-03-14T05:47:55.389Z,2.63
2023-03-14T05:49:29.432Z,2.05
2023-03-14T05:51:02.228Z,5.40
2023-03-14T05:52:33.990Z,3.13
2023-03-14T05:54:06.786Z,2.13
2023-03-14T05:55:39.461Z,1.77
2023-03-14T05:57:12.188Z,3.57
2023-03-14T05:58:44.905Z,3.33
2023-03-14T06:00:18.660Z,3.83
2023-03-14T06:01:51.388Z,2.00
2023-03-14T06:03:24.324Z,3.67
2023-03-14T06:04:58.400Z,3.10
2023-03-14T06:06:31.098Z,4.97
2023-03-14T06:08:02.819Z,2.72
2023-03-14T06:09:35.523Z,2.97
2023-03-14T06:11:08.410Z,3.95
2023-03-14T06:12:41.148Z,2.03
2023-03-14T06:14:13.858Z,3.10
2023-03-14T06:15:46.615Z,2.50
2023-03-14T06:17:19.875Z,2.63
2023-03-14T06:18:53.121Z,2.42
2023-03-14T06:20:26.417Z,3.10
2023-03-14T06:21:59.361Z,2.92
2023-03-14T06:23:32.803Z,4.35
2023-03-14T06:25:06.292Z,4.05
2023-03-14T06:26:38.977Z,2.58
2023-03-14T06:28:11.678Z,3.17
2023-03-14T06:29:44.414Z,3.83
2023-03-14T06:31:17.138Z,2.70
2023-03-14T06:32:49.902Z,3.42
2023-03-14T06:34:21.897Z,1.27
2023-03-14T06:35:56.162Z,2.45
2023-03-14T06:37:29.018Z,3.60
2023-03-14T06:39:01.720Z,4.35
2023-03-14T06:40:34.435Z,2.00
2023-03-14T06:42:07.197Z,2.53
2023-03-14T06:43:39.932Z,2.70
2023-03-14T06:45:12.883Z,1.40
2023-03-14T06:46:45.573Z,1.90
2023-03-14T06:48:19.856Z,3.95
2023-03-14T06:49:52.566Z,3.40
2023-03-14T06:51:26.755Z,2.40
2023-03-14T06:52:59.503Z,2.53
2023-03-14T06:54:32.379Z,2.95
2023-03-14T06:56:05.498Z,4.90
2023-03-14T06:57:38.173Z,2.50
2023-03-14T06:59:10.929Z,1.35
2023-03-14T07:00:43.903Z,2.03
2023-03-14T07:02:16.637Z,3.10
2023-03-14T07:03:48.375Z,3.28
2023-03-14T07:05:21.122Z,4.00
2023-03-14T07:06:55.288Z,1.40
2023-03-14T07:08:27.990Z,1.65
2023-03-14T07:10:00.681Z,4.43
2023-03-14T07:11:33.387Z,3.23
2023-03-14T07:13:06.232Z,3.25
2023-03-14T07:14:38.921Z,2.87
2023-03-14T07:16:11.787Z,2.13
2023-03-14T07:17:44.492Z,3.92
2023-03-14T07:19:17.219Z,2.97
2023-03-14T07:20:51.513Z,1.60
2023-03-14T07:22:25.737Z,3.43
2023-03-14T07:23:58.432Z,3.37
2023-03-14T07:25:31.334Z,5.87
2023-03-14T07:27:04.118Z,1.50
2023-03-14T07:28:36.845Z,4.67
2023-03-14T07:30:10.715Z,1.63
2023-03-14T07:31:43.400Z,2.47
2023-03-14T07:33:16.531Z,2.22
2023-03-14T07:34:49.216Z,2.40
2023-03-14T07:36:21.904Z,2.53
2023-03-14T07:37:55.917Z,1.95
2023-03-14T07:39:28.584Z,3.77
2023-03-14T07:41:02.018Z,3.63
2023-03-14T07:42:34.815Z,3.73
2023-03-14T07:44:07.558Z,3.60
2023-03-14T07:45:43.120Z,2.53
2023-03-14T07:47:16.138Z,1.43
2023-03-14T07:48:48.850Z,2.80
2023-03-14T07:50:21.677Z,3.07
2023-03-14T07:51:54.385Z,4.27
2023-03-14T07:53:28.519Z,3.63
2023-03-14T07:55:01.265Z,4.13
2023-03-14T07:56:33.997Z,2.40
2023-03-14T07:58:07.316Z,2.70
2023-03-14T07:59:40.001Z,1.73
2023-03-14T08:01:12.725Z,2.13
2023-03-14T08:02:45.451Z,3.20
2023-03-14T08:04:18.167Z,2.90
2023-03-14T08:05:52.214Z,3.30
2023-03-14T08:07:24.927Z,4.07
2023-03-14T08:08:58.954Z,3.43
2023-03-14T08:10:31.967Z,3.33
2023-03-14T08:12:05.005Z,2.37
2023-03-14T08:13:37.946Z,2.97
2023-03-14T08:15:11.571Z,3.47
2023-03-14T08:16:44.253Z,2.20
2023-03-14T08:18:16.962Z,3.73
2023-03-14T08:19:49.728Z,2.13
2023-03-14T08:21:22.449Z,2.30
2023-03-14T08:22:57.801Z,2.43
2023-03-14T08:24:32.266Z,2.93
2023-03-14T08:26:05.109Z,2.33
2023-03-14T08:27:39.565Z,4.20
2023-03-14T08:29:13.711Z,1.53
2023-03-14T08:30:47.836Z,2.87
2023-03-14T08:32:21.110Z,1.90
2023-03-14T08:33:54.215Z,3.33
2023-03-14T08:35:27.469Z,1.90
2023-03-14T08:37:00.186Z,2.17
2023-03-14T08:38:32.897Z,2.50
2023-03-14T08:40:09.844Z,1.93
2023-03-14T08:41:43.785Z,1.73
2023-03-14T08:43:16.569Z,1.20
2023-03-14T08:44:49.270Z,2.50
2023-03-14T08:46:21.976Z,2.10
2023-03-14T08:47:54.729Z,1.87
2023-03-14T08:49:27.451Z,2.50
2023-03-14T08:51:06.934Z,1.53
2023-03-14T08:52:41.198Z,1.37
2023-03-14T14:56:28.688Z,1.80
2023-03-14T14:58:15.904Z,1.42
2023-03-14T14:59:53.530Z,2.88
2023-03-14T15:01:31.157Z,2.15
2023-03-14T15:03:03.963Z,3.40
2023-03-14T15:04:36.715Z,1.45
2023-03-14T15:06:13.087Z,0.90
2023-03-14T15:07:45.971Z,1.70
2023-03-14T15:09:19.104Z,1.40
2023-03-14T15:10:51.839Z,1.95
2023-03-14T15:12:25.888Z,0.90
2023-03-14T15:13:58.627Z,3.08
2023-03-14T15:15:31.602Z,1.25
2023-03-14T15:17:04.850Z,2.10
2023-03-14T15:18:37.864Z,1.65
2023-03-14T15:20:14.490Z,1.35
2023-03-14T15:21:47.213Z,1.38
2023-03-14T15:23:21.409Z,0.80
2023-03-14T15:24:54.092Z,0.90
2023-03-14T15:26:29.972Z,0.95
2023-03-14T15:28:04.215Z,0.95
2023-03-14T15:29:37.683Z,2.85
2023-03-14T15:31:12.576Z,1.85
2023-03-14T15:32:45.683Z,2.45
2023-03-14T15:34:18.501Z,1.65
2023-03-14T15:35:51.501Z,4.32
2023-03-14T15:37:24.491Z,1.05
2023-03-14T15:38:59.502Z,1.40
2023-03-14T15:40:32.704Z,2.75
2023-03-14T15:42:05.596Z,2.33
2023-03-14T15:43:39.638Z,2.38
2023-03-14T15:45:12.701Z,0.98
2023-03-14T15:46:45.419Z,2.78
2023-03-14T15:48:19.689Z,1.95
2023-03-14T15:49:52.695Z,1.48
2023-03-14T15:51:25.389Z,0.70
2023-03-14T15:52:58.125Z,2.17
2023-03-14T15:54:30.816Z,0.70
2023-03-14T15:56:03.810Z,1.50
2023-03-14T15:57:36.616Z,1.50
2023-03-14T15:59:10.857Z,1.65
2023-03-14T16:00:43.566Z,2.15
2023-03-14T16:02:16.301Z,3.40
2023-03-14T16:03:49.994Z,1.20
2023-03-14T16:05:24.017Z,1.85
2023-03-14T16:06:56.742Z,2.28
2023-03-14T16:08:30.663Z,2.38
2023-03-14T16:10:04.262Z,1.08
2023-03-14T16:11:36.952Z,2.47
2023-03-14T16:13:09.795Z,1.92
2023-03-14T16:14:44.000Z,1.30
2023-03-14T16:16:16.834Z,1.20
2023-03-14T16:17:49.836Z,1.55
2023-03-14T16:19:22.543Z,1.33
2023-03-14T16:20:56.972Z,0.80
2023-03-14T16:22:34.207Z,1.27
2023-03-14T16:24:07.776Z,2.92
2023-03-14T16:25:40.509Z,2.45
2023-03-14T16:27:13.464Z,2.33
2023-03-14T16:28:47.670Z,2.88
2023-03-14T16:30:21.878Z,2.47
2023-03-14T16:31:55.039Z,2.00
2023-03-14T16:33:27.860Z,2.10
2023-03-14T16:35:01.075Z,1.17
2023-03-14T16:36:33.800Z,2.10
2023-03-14T16:38:07.334Z,2.58
2023-03-14T16:40:01.310Z,2.15
2023-03-14T16:41:33.136Z,1.83
2023-03-14T16:43:15.750Z,1.42
2023-03-14T16:44:49.025Z,1.65
2023-03-14T16:46:24.967Z,1.88
2023-03-14T16:47:57.784Z,1.65
2023-03-14T16:49:30.480Z,1.17
2023-03-14T16:51:03.998Z,1.30
2023-03-14T16:52:36.763Z,1.48
2023-03-14T16:54:09.553Z,1.35
2023-03-14T16:55:43.381Z,2.80
2023-03-14T16:57:16.056Z,1.65
2023-03-14T16:58:49.630Z,0.70
2023-03-14T17:00:23.177Z,1.60
2023-03-14T17:01:57.397Z,2.22
2023-03-14T17:03:30.154Z,1.95
2023-03-14T17:05:02.832Z,1.00
2023-03-14T17:06:36.433Z,1.50
2023-03-14T17:08:09.157Z,1.17
2023-03-14T17:09:41.851Z,2.13
2023-03-14T17:11:14.554Z,0.80
2023-03-14T17:12:47.259Z,1.67
2023-03-14T17:14:19.960Z,1.65
2023-03-14T17:15:55.093Z,1.10
2023-03-14T17:17:29.188Z,0.70
2023-03-14T17:19:01.918Z,2.88
2023-03-14T17:20:34.595Z,1.13
2023-03-14T17:22:22.370Z,0.80
2023-03-14T17:23:56.836Z,0.73
2023-03-14T17:25:29.531Z,0.65
2023-03-14T17:27:02.219Z,0.88
2023-03-14T17:28:35.363Z,2.33
2023-03-14T17:30:09.278Z,1.80
2023-03-14T17:31:42.019Z,1.00
2023-03-14T17:33:16.398Z,0.80
2023-03-14T17:34:49.080Z,0.88
2023-03-14T17:36:23.614Z,1.98
2023-03-14T17:37:56.294Z,1.25
2023-03-14T17:39:29.055Z,1.00
2023-03-14T17:41:01.734Z,2.08
2023-03-14T17:42:34.409Z,1.52
2023-03-14T17:44:07.360Z,2.08
2023-03-14T17:45:40.050Z,1.15
2023-03-14T17:47:13.180Z,1.10
2023-03-14T17:48:48.634Z,0.95
2023-03-14T17:50:22.199Z,1.10
2023-03-14T17:51:54.926Z,1.10
2023-03-14T17:53:27.643Z,1.20
2023-03-14T17:55:00.700Z,1.00
2023-03-14T17:56:33.622Z,0.90
2023-03-14T17:58:06.333Z,0.70
2023-03-14T17:59:39.065Z,0.60
2023-03-14T18:01:13.456Z,0.40
2023-03-14T18:02:46.539Z,0.47
2023-03-14T18:04:21.162Z,0.60
2023-03-14T18:05:53.920Z,0.60
2023-03-14T18:07:27.986Z,0.98
2023-03-14T18:09:01.225Z,1.42
2023-03-14T18:10:34.068Z,1.60
2023-03-14T18:12:08.622Z,2.60
2023-03-14T18:13:41.616Z,2.10
2023-03-14T18:15:14.405Z,1.38
2023-03-14T18:16:49.493Z,1.02
2023-03-14T18:18:22.410Z,1.15
2023-03-14T18:19:57.640Z,2.20
2023-03-14T18:21:31.017Z,5.35
2023-03-14T18:23:03.809Z,2.65
2023-03-14T18:24:36.737Z,2.85
2023-03-14T18:26:09.707Z,2.53
2023-03-14T18:27:42.475Z,1.63
2023-03-14T18:29:15.897Z,1.75
2023-03-14T18:30:52.229Z,1.35
2023-03-14T18:32:25.144Z,2.33
2023-03-14T18:33:57.887Z,3.33
2023-03-14T18:35:32.848Z,3.35
2023-03-14T18:37:05.533Z,4.72
2023-03-14T18:38:42.920Z,3.70
2023-03-14T18:40:17.394Z,3.05
2023-03-14T18:41:50.189Z,5.53
2023-03-14T18:43:22.856Z,2.55
2023-03-14T18:44:55.580Z,3.45
2023-03-14T18:46:28.871Z,3.50
2023-03-14T18:48:01.598Z,2.03
2023-03-14T18:49:34.942Z,2.80
2023-03-14T18:51:11.517Z,2.90
2023-03-14T18:52:44.214Z,4.85
2023-03-14T18:54:16.985Z,4.32
2023-03-14T18:55:49.689Z,5.65
2023-03-14T18:57:22.790Z,6.47
2023-03-14T18:58:56.119Z,3.85
2023-03-14T19:00:28.830Z,4.78
2023-03-14T19:02:01.658Z,6.28
2023-03-14T19:03:37.528Z,4.97
2023-03-14T19:05:10.469Z,3.67
2023-03-14T19:06:44.566Z,8.00
2023-03-14T19:08:17.245Z,9.48
2023-03-14T19:09:50.201Z,5.35
2023-03-14T19:11:22.963Z,9.75
2023-03-14T19:12:55.679Z,7.80
2023-03-14T19:14:28.385Z,12.82
2023-03-14T19:16:03.170Z,11.13
2023-03-14T19:17:35.942Z,9.10
2023-03-14T19:19:08.634Z,9.70
2023-03-14T19:20:42.204Z,10.07
2023-03-14T19:22:16.219Z,7.00
2023-03-14T19:23:49.105Z,7.88
2023-03-14T19:25:22.194Z,7.03
2023-03-14T19:26:55.876Z,10.45
2023-03-14T19:28:28.650Z,5.68
2023-03-14T19:30:01.348Z,10.65
2023-03-14T19:31:34.105Z,7.60
2023-03-14T19:33:06.858Z,4.50
2023-03-14T19:34:39.585Z,8.73
2023-03-14T19:36:22.370Z,6.68
2023-03-14T19:37:56.397Z,7.50
2023-03-14T19:39:29.220Z,4.65
2023-03-14T19:41:01.936Z,5.55
2023-03-14T19:42:34.636Z,5.32
2023-03-14T19:44:08.160Z,4.30
2023-03-14T19:45:43.317Z,4.95
2023-03-14T19:47:16.102Z,4.00
2023-03-14T19:48:48.994Z,8.15
2023-03-14T19:50:21.696Z,6.63
2023-03-14T19:51:54.397Z,8.23
2023-03-14T19:53:28.523Z,8.98
2023-03-14T19:55:01.792Z,5.47
2023-03-14T19:56:34.859Z,5.78
2023-03-14T19:58:07.566Z,4.53
2023-03-14T19:59:40.395Z,6.18
2023-03-14T20:01:13.673Z,6.35
2023-03-14T20:02:47.219Z,2.67
2023-03-14T20:04:19.921Z,5.07
2023-03-14T20:05:53.287Z,7.25
2023-03-14T20:07:27.724Z,4.35
2023-03-14T20:09:05.577Z,6.60
2023-03-14T20:10:38.376Z,5.40
2023-03-14T20:12:11.075Z,8.65
2023-03-14T20:13:44.479Z,7.35
2023-03-14T20:15:19.495Z,6.38
2023-03-14T20:16:52.312Z,6.07
2023-03-14T20:18:25.041Z,3.53
2023-03-14T20:19:58.220Z,6.70
2023-03-14T20:21:31.815Z,5.35
2023-03-14T20:23:04.494Z,6.25
2023-03-14T20:24:38.638Z,5.13
2023-03-14T20:26:11.360Z,4.75
2023-03-14T20:27:44.051Z,4.88
2023-03-14T20:29:16.765Z,4.97
2023-03-14T20:30:49.651Z,3.22
2023-03-14T20:32:22.502Z,4.82
2023-03-14T20:33:55.267Z,3.13
2023-03-14T20:35:28.275Z,5.05
2023-03-14T20:37:03.114Z,2.92
2023-03-14T20:38:36.620Z,3.20
2023-03-14T20:40:13.182Z,3.88
2023-03-14T20:41:45.995Z,3.70
2023-03-14T20:43:18.711Z,4.65
2023-03-14T20:44:51.497Z,5.88
2023-03-14T20:46:24.299Z,6.20
2023-03-14T20:47:57.023Z,3.72
2023-03-14T20:49:29.711Z,5.07
2023-03-14T20:51:02.713Z,3.60
2023-03-14T20:52:35.442Z,3.20
2023-03-14T20:54:09.862Z,3.63
2023-03-14T20:55:43.932Z,2.78
2023-03-14T20:57:16.707Z,2.70
2023-03-14T20:58:49.470Z,3.20
2023-03-14T21:00:22.749Z,5.65
2023-03-14T21:01:57.666Z,5.70
2023-03-14T21:03:30.795Z,5.18
2023-03-14T21:05:03.810Z,3.50
2023-03-14T21:06:36.530Z,4.20
2023-03-14T21:08:09.288Z,6.32
2023-03-14T21:09:41.988Z,3.35
2023-03-14T21:11:16.020Z,3.97
2023-03-14T21:12:48.712Z,4.28
2023-03-14T21:14:22.465Z,4.82
2023-03-14T21:15:55.453Z,4.75
2023-03-14T21:17:28.224Z,3.70
2023-03-14T21:19:00.939Z,6.03
2023-03-14T21:20:34.311Z,7.47
2023-03-14T21:22:07.435Z,5.25
2023-03-14T21:23:41.060Z,6.45
2023-03-14T21:25:13.834Z,6.25
2023-03-14T21:26:47.988Z,4.60
2023-03-14T21:28:20.918Z,3.85
2023-03-14T21:29:53.803Z,5.53
2023-03-14T21:31:28.004Z,4.50
2023-03-14T21:33:01.301Z,6.63
2023-03-14T21:34:34.189Z,7.82
2023-03-14T21:36:08.284Z,5.40
2023-03-14T21:37:41.319Z,4.78
2023-03-14T21:39:14.431Z,6.00
2023-03-14T21:40:49.893Z,6.18
2023-03-14T21:42:25.591Z,6.60
2023-03-14T21:43:58.339Z,3.55
2023-03-14T21:45:31.011Z,6.00
2023-03-14T21:47:04.865Z,5.93
2023-03-14T21:48:37.607Z,6.38
2023-03-14T21:50:15.037Z,4.25
2023-03-14T21:51:47.764Z,4.72
2023-03-14T21:53:21.136Z,3.30
2023-03-14T21:54:54.432Z,7.60
2023-03-14T21:56:27.348Z,5.57
2023-03-14T21:58:02.526Z,3.90
2023-03-14T21:59:36.975Z,6.38
2023-03-14T22:01:10.128Z,5.43
2023-03-14T22:02:49.655Z,4.57
2023-03-14T22:04:34.608Z,5.25
2023-03-14T22:06:07.965Z,6.18
2023-03-14T22:07:41.066Z,5.03
2023-03-14T22:09:13.775Z,5.72
2023-03-14T22:10:46.915Z,4.90
2023-03-14T22:12:19.944Z,7.38
2023-03-14T22:13:54.721Z,7.43
2023-03-14T22:15:27.409Z,5.57
2023-03-14T22:17:01.070Z,6.03
2023-03-14T22:18:32.868Z,5.57
2023-03-14T22:20:09.297Z,5.50
2023-03-14T22:21:41.993Z,6.22
2023-03-14T22:23:14.916Z,5.95
2023-03-14T22:24:47.591Z,5.07
2023-03-14T22:26:20.298Z,4.65
2023-03-14T22:27:52.980Z,4.53
2023-03-14T22:29:27.020Z,5.90
2023-03-14T22:31:02.897Z,5.78
2023-03-14T22:32:36.101Z,6.05
2023-03-14T22:34:08.800Z,6.68
2023-03-14T22:35:41.491Z,6.60
2023-03-14T22:37:14.970Z,6.32
2023-03-14T22:38:47.649Z,5.65
2023-03-14T22:40:19.516Z,7.25
2023-03-14T22:41:52.216Z,5.70
2023-03-14T22:43:24.994Z,9.02
2023-03-14T22:44:59.036Z,9.23
2023-03-14T22:46:31.797Z,7.97
2023-03-14T22:48:03.933Z,7.90
2023-03-14T22:49:36.635Z,7.55
2023-03-14T22:51:10.938Z,5.63
2023-03-14T22:52:43.681Z,8.18
2023-03-14T22:54:16.353Z,5.32
2023-03-14T22:55:49.063Z,5.40
2023-03-14T22:57:21.821Z,6.60
2023-03-14T22:58:56.961Z,9.20
2023-03-14T23:00:31.797Z,5.57
2023-03-14T23:02:04.521Z,8.82
2023-03-14T23:03:37.253Z,6.72
2023-03-14T23:05:10.912Z,7.18
2023-03-14T23:06:43.616Z,5.90
2023-03-14T23:08:16.614Z,8.13
2023-03-14T23:09:49.303Z,6.65
2023-03-14T23:11:22.006Z,7.57
2023-03-14T23:12:57.426Z,5.05
2023-03-14T23:14:30.198Z,7.00
2023-03-14T23:16:06.536Z,7.45
2023-03-14T23:17:39.239Z,9.02
2023-03-14T23:19:11.935Z,6.35
2023-03-14T23:20:43.650Z,9.80
2023-03-14T23:22:16.370Z,7.63
2023-03-14T23:23:49.570Z,8.15
2023-03-14T23:25:22.266Z,4.43
2023-03-14T23:26:54.967Z,6.68
2023-03-14T23:28:26.689Z,6.80
2023-03-14T23:29:59.549Z,8.80
2023-03-14T23:31:34.045Z,8.10
2023-03-14T23:33:06.749Z,6.53
2023-03-14T23:34:39.568Z,8.02
2023-03-14T23:36:13.894Z,8.40
2023-03-14T23:37:48.824Z,9.60
2023-03-14T23:39:22.548Z,3.50
2023-03-14T23:40:54.677Z,4.63
2023-03-14T23:42:27.358Z,6.30
2023-03-14T23:44:01.664Z,6.32
2023-03-14T23:45:34.369Z,5.35
2023-03-14T23:47:09.416Z,8.07
2023-03-14T23:48:42.257Z,4.20
2023-03-14T23:50:14.091Z,7.70
2023-03-14T23:51:46.857Z,6.00
2023-03-14T23:53:19.531Z,7.20
2023-03-14T23:54:52.240Z,6.65
2023-03-14T23:56:25.106Z,9.57
2023-03-14T23:57:58.070Z,7.45
2023-03-14T23:59:31.434Z,7.15
